sensor_id;sensor_type;location;lat;lon;timestamp;P1;P2;P0
40947;PMS5003;49382;-25.924;28.194;2023-02-08T00:00:39;4;4;
40947;PMS5003;49382;-25.924;28.194;2023-02-08T00:03:05;5;5;
40947;PMS5003;49382;-25.924;28.194;2023-02-08T00:05:31;5;5;
40947;PMS5003;49382;-25.924;28.194;2023-02-08T00:07:57;5;5;
40947;PMS5003;49382;-25.924;28.194;2023-02-08T00:10:22;4;4;
40947;PMS5003;49382;-25.924;28.194;2023-02-08T00:12:47;3;2;
40947;PMS5003;49382;-25.924;28.194;2023-02-08T00:15:13;5;5;
40947;PMS5003;49382;-25.924;28.194;2023-02-08T00:17:39;5;5;
40947;PMS5003;49382;-25.924;28.194;2023-02-08T00:20:05;5;5;
40947;PMS5003;49382;-25.924;28.194;2023-02-08T00:22:30;5;5;
40947;PMS5003;49382;-25.924;28.194;2023-02-08T00:24:56;5;5;
40947;PMS5003;49382;-25.924;28.194;2023-02-08T00:27:22;5;4;
40947;PMS5003;49382;-25.924;28.194;2023-02-08T00:29:48;5;5;
40947;PMS5003;49382;-25.924;28.194;2023-02-08T00:32:13;6;5;
40947;PMS5003;49382;-25.924;28.194;2023-02-08T00:34:39;6;6;
40947;PMS5003;49382;-25.924;28.194;2023-02-08T00:37:05;7;7;
40947;PMS5003;49382;-25.924;28.194;2023-02-08T00:39:31;6;6;
40947;PMS5003;49382;-25.924;28.194;2023-02-08T00:41:57;5;4;
40947;PMS5003;49382;-25.924;28.194;2023-02-08T00:44:22;5;5;
40947;PMS5003;49382;-25.924;28.194;2023-02-08T00:46:48;5;5;
40947;PMS5003;49382;-25.924;28.194;2023-02-08T00:49:14;6;5;
40947;PMS5003;49382;-25.924;28.194;2023-02-08T00:51:40;5;5;
40947;PMS5003;49382;-25.924;28.194;2023-02-08T00:54:05;5;5;
40947;PMS5003;49382;-25.924;28.194;2023-02-08T00:56:31;6;5;
40947;PMS5003;49382;-25.924;28.194;2023-02-08T00:58:57;7;7;
40947;PMS5003;49382;-25.924;28.194;2023-02-08T01:01:22;5;5;
40947;PMS5003;49382;-25.924;28.194;2023-02-08T01:03:48;5;5;
40947;PMS5003;49382;-25.924;28.194;2023-02-08T01:06:15;4;4;
40947;PMS5003;49382;-25.924;28.194;2023-02-08T01:08:40;7;6;
40947;PMS5003;49382;-25.924;28.194;2023-02-08T01:11:06;5;5;
40947;PMS5003;49382;-25.924;28.194;2023-02-08T01:13:31;5;5;
40947;PMS5003;49382;-25.924;28.194;2023-02-08T01:18:23;6;6;
40947;PMS5003;49382;-25.924;28.194;2023-02-08T01:20:49;6;5;
40947;PMS5003;49382;-25.924;28.194;2023-02-08T01:23:14;5;5;
40947;PMS5003;49382;-25.924;28.194;2023-02-08T01:25:40;6;5;
40947;PMS5003;49382;-25.924;28.194;2023-02-08T01:28:06;5;5;
40947;PMS5003;49382;-25.924;28.194;2023-02-08T01:30:32;5;5;
40947;PMS5003;49382;-25.924;28.194;2023-02-08T01:32:57;6;6;
40947;PMS5003;49382;-25.924;28.194;2023-02-08T01:35:23;6;5;
40947;PMS5003;49382;-25.924;28.194;2023-02-08T01:37:49;6;6;
40947;PMS5003;49382;-25.924;28.194;2023-02-08T01:40:15;7;7;
40947;PMS5003;49382;-25.924;28.194;2023-02-08T01:42:41;6;6;
40947;PMS5003;49382;-25.924;28.194;2023-02-08T01:47:32;7;6;
40947;PMS5003;49382;-25.924;28.194;2023-02-08T01:49:58;9;8;
40947;PMS5003;49382;-25.924;28.194;2023-02-08T01:52:24;7;7;
40947;PMS5003;49382;-25.924;28.194;2023-02-08T01:54:50;7;7;
40947;PMS5003;49382;-25.924;28.194;2023-02-08T01:57:15;7;7;
40947;PMS5003;49382;-25.924;28.194;2023-02-08T01:59:42;7;7;
40947;PMS5003;49382;-25.924;28.194;2023-02-08T02:02:09;8;8;
40947;PMS5003;49382;-25.924;28.194;2023-02-08T02:04:32;8;7;
40947;PMS5003;49382;-25.924;28.194;2023-02-08T02:06:58;8;8;
40947;PMS5003;49382;-25.924;28.194;2023-02-08T02:09:25;7;7;
40947;PMS5003;49382;-25.924;28.194;2023-02-08T02:11:49;9;8;
40947;PMS5003;49382;-25.924;28.194;2023-02-08T02:14:15;9;8;
40947;PMS5003;49382;-25.924;28.194;2023-02-08T02:16:40;8;8;
40947;PMS5003;49382;-25.924;28.194;2023-02-08T02:19:07;5;5;
40947;PMS5003;49382;-25.924;28.194;2023-02-08T02:21:37;9;7;
40947;PMS5003;49382;-25.924;28.194;2023-02-08T02:28:58;9;9;
40947;PMS5003;49382;-25.924;28.194;2023-02-08T02:33:44;7;7;
40947;PMS5003;49382;-25.924;28.194;2023-02-08T02:36:08;8;8;
40947;PMS5003;49382;-25.924;28.194;2023-02-08T02:38:36;10;10;
40947;PMS5003;49382;-25.924;28.194;2023-02-08T02:40:59;9;9;
40947;PMS5003;49382;-25.924;28.194;2023-02-08T02:43:25;9;9;
40947;PMS5003;49382;-25.924;28.194;2023-02-08T02:45:52;9;9;
40947;PMS5003;49382;-25.924;28.194;2023-02-08T02:48:17;9;9;
40947;PMS5003;49382;-25.924;28.194;2023-02-08T02:50:42;8;8;
40947;PMS5003;49382;-25.924;28.194;2023-02-08T02:53:09;8;8;
40947;PMS5003;49382;-25.924;28.194;2023-02-08T02:55:33;10;9;
40947;PMS5003;49382;-25.924;28.194;2023-02-08T02:57:58;9;9;
40947;PMS5003;49382;-25.924;28.194;2023-02-08T03:00:25;8;8;
40947;PMS5003;49382;-25.924;28.194;2023-02-08T03:02:50;8;8;
40947;PMS5003;49382;-25.924;28.194;2023-02-08T03:05:16;9;9;
40947;PMS5003;49382;-25.924;28.194;2023-02-08T03:10:11;8;8;
40947;PMS5003;49382;-25.924;28.194;2023-02-08T03:12:35;10;10;
40947;PMS5003;49382;-25.924;28.194;2023-02-08T03:15:01;10;9;
40947;PMS5003;49382;-25.924;28.194;2023-02-08T03:17:29;12;12;
40947;PMS5003;49382;-25.924;28.194;2023-02-08T03:19:52;16;13;
40947;PMS5003;49382;-25.924;28.194;2023-02-08T03:22:18;13;12;
40947;PMS5003;49382;-25.924;28.194;2023-02-08T03:24:45;12;12;
40947;PMS5003;49382;-25.924;28.194;2023-02-08T03:27:10;12;12;
40947;PMS5003;49382;-25.924;28.194;2023-02-08T03:29:38;11;10;
40947;PMS5003;49382;-25.924;28.194;2023-02-08T03:31:59;11;10;
40947;PMS5003;49382;-25.924;28.194;2023-02-08T03:34:26;10;9;
40947;PMS5003;49382;-25.924;28.194;2023-02-08T03:36:51;10;10;
40947;PMS5003;49382;-25.924;28.194;2023-02-08T03:39:17;12;12;
40947;PMS5003;49382;-25.924;28.194;2023-02-08T03:41:42;10;9;
40947;PMS5003;49382;-25.924;28.194;2023-02-08T03:44:09;10;10;
40947;PMS5003;49382;-25.924;28.194;2023-02-08T03:46:33;10;8;
40947;PMS5003;49382;-25.924;28.194;2023-02-08T03:49:07;9;9;
40947;PMS5003;49382;-25.924;28.194;2023-02-08T03:51:24;9;8;
40947;PMS5003;49382;-25.924;28.194;2023-02-08T03:53:50;7;7;
40947;PMS5003;49382;-25.924;28.194;2023-02-08T03:56:17;8;8;
40947;PMS5003;49382;-25.924;28.194;2023-02-08T03:58:43;7;7;
40947;PMS5003;49382;-25.924;28.194;2023-02-08T04:01:10;8;8;
40947;PMS5003;49382;-25.924;28.194;2023-02-08T04:03:33;7;7;
40947;PMS5003;49382;-25.924;28.194;2023-02-08T04:05:59;10;10;
40947;PMS5003;49382;-25.924;28.194;2023-02-08T04:08:25;8;8;
40947;PMS5003;49382;-25.924;28.194;2023-02-08T04:10:50;9;9;
40947;PMS5003;49382;-25.924;28.194;2023-02-08T04:13:17;9;9;
40947;PMS5003;49382;-25.924;28.194;2023-02-08T04:15:42;8;8;
40947;PMS5003;49382;-25.924;28.194;2023-02-08T04:18:08;7;7;
40947;PMS5003;49382;-25.924;28.194;2023-02-08T04:20:34;8;8;
40947;PMS5003;49382;-25.924;28.194;2023-02-08T04:22:59;10;10;
40947;PMS5003;49382;-25.924;28.194;2023-02-08T04:25:25;9;9;
40947;PMS5003;49382;-25.924;28.194;2023-02-08T04:27:51;8;8;
40947;PMS5003;49382;-25.924;28.194;2023-02-08T04:30:16;9;9;
40947;PMS5003;49382;-25.924;28.194;2023-02-08T04:32:42;10;10;
40947;PMS5003;49382;-25.924;28.194;2023-02-08T04:35:08;9;9;
40947;PMS5003;49382;-25.924;28.194;2023-02-08T04:37:33;9;9;
40947;PMS5003;49382;-25.924;28.194;2023-02-08T04:39:59;8;8;
40947;PMS5003;49382;-25.924;28.194;2023-02-08T04:42:25;10;10;
40947;PMS5003;49382;-25.924;28.194;2023-02-08T04:44:50;10;10;
40947;PMS5003;49382;-25.924;28.194;2023-02-08T04:47:16;9;9;
40947;PMS5003;49382;-25.924;28.194;2023-02-08T04:49:42;9;9;
40947;PMS5003;49382;-25.924;28.194;2023-02-08T04:52:09;10;10;
40947;PMS5003;49382;-25.924;28.194;2023-02-08T04:54:33;11;10;
40947;PMS5003;49382;-25.924;28.194;2023-02-08T04:56:59;11;10;
40947;PMS5003;49382;-25.924;28.194;2023-02-08T04:59:25;10;10;
40947;PMS5003;49382;-25.924;28.194;2023-02-08T05:01:51;13;13;
40947;PMS5003;49382;-25.924;28.194;2023-02-08T05:04:16;13;13;
40947;PMS5003;49382;-25.924;28.194;2023-02-08T05:06:42;11;11;
40947;PMS5003;49382;-25.924;28.194;2023-02-08T05:09:09;12;11;
40947;PMS5003;49382;-25.924;28.194;2023-02-08T05:11:34;10;10;
40947;PMS5003;49382;-25.924;28.194;2023-02-08T05:13:59;11;11;
40947;PMS5003;49382;-25.924;28.194;2023-02-08T05:16:25;12;11;
40947;PMS5003;49382;-25.924;28.194;2023-02-08T05:18:51;11;10;
40947;PMS5003;49382;-25.924;28.194;2023-02-08T05:21:17;12;11;
40947;PMS5003;49382;-25.924;28.194;2023-02-08T05:23:42;11;10;
40947;PMS5003;49382;-25.924;28.194;2023-02-08T05:26:09;8;8;
40947;PMS5003;49382;-25.924;28.194;2023-02-08T05:28:34;11;10;
40947;PMS5003;49382;-25.924;28.194;2023-02-08T05:33:26;10;10;
40947;PMS5003;49382;-25.924;28.194;2023-02-08T05:35:51;12;9;
40947;PMS5003;49382;-25.924;28.194;2023-02-08T05:38:17;9;9;
40947;PMS5003;49382;-25.924;28.194;2023-02-08T05:40:43;8;8;
40947;PMS5003;49382;-25.924;28.194;2023-02-08T05:43:09;8;8;
40947;PMS5003;49382;-25.924;28.194;2023-02-08T05:45:34;8;7;
40947;PMS5003;49382;-25.924;28.194;2023-02-08T05:48:00;8;8;
40947;PMS5003;49382;-25.924;28.194;2023-02-08T05:50:26;6;6;
40947;PMS5003;49382;-25.924;28.194;2023-02-08T05:52:52;5;5;
40947;PMS5003;49382;-25.924;28.194;2023-02-08T05:55:17;6;6;
40947;PMS5003;49382;-25.924;28.194;2023-02-08T05:57:43;7;7;
40947;PMS5003;49382;-25.924;28.194;2023-02-08T06:00:10;8;8;
40947;PMS5003;49382;-25.924;28.194;2023-02-08T06:02:35;5;5;
40947;PMS5003;49382;-25.924;28.194;2023-02-08T06:05:01;7;7;
40947;PMS5003;49382;-25.924;28.194;2023-02-08T06:07:26;6;6;
40947;PMS5003;49382;-25.924;28.194;2023-02-08T06:09:52;5;5;
40947;PMS5003;49382;-25.924;28.194;2023-02-08T06:12:18;7;7;
40947;PMS5003;49382;-25.924;28.194;2023-02-08T06:14:44;7;7;
40947;PMS5003;49382;-25.924;28.194;2023-02-08T06:17:09;8;8;
40947;PMS5003;49382;-25.924;28.194;2023-02-08T06:19:35;9;8;
40947;PMS5003;49382;-25.924;28.194;2023-02-08T06:22:01;7;7;
40947;PMS5003;49382;-25.924;28.194;2023-02-08T06:24:27;7;7;
40947;PMS5003;49382;-25.924;28.194;2023-02-08T06:26:53;7;7;
40947;PMS5003;49382;-25.924;28.194;2023-02-08T06:29:18;6;6;
40947;PMS5003;49382;-25.924;28.194;2023-02-08T06:31:44;9;6;
40947;PMS5003;49382;-25.924;28.194;2023-02-08T06:34:10;6;6;
40947;PMS5003;49382;-25.924;28.194;2023-02-08T06:36:36;5;5;
40947;PMS5003;49382;-25.924;28.194;2023-02-08T06:39:01;4;4;
40947;PMS5003;49382;-25.924;28.194;2023-02-08T06:41:27;5;5;
40947;PMS5003;49382;-25.924;28.194;2023-02-08T06:43:53;6;6;
40947;PMS5003;49382;-25.924;28.194;2023-02-08T06:46:19;6;6;
40947;PMS5003;49382;-25.924;28.194;2023-02-08T06:48:44;7;7;
40947;PMS5003;49382;-25.924;28.194;2023-02-08T06:51:10;7;7;
40947;PMS5003;49382;-25.924;28.194;2023-02-08T06:53:36;5;5;
40947;PMS5003;49382;-25.924;28.194;2023-02-08T06:56:02;7;7;
40947;PMS5003;49382;-25.924;28.194;2023-02-08T06:58:27;6;6;
40947;PMS5003;49382;-25.924;28.194;2023-02-08T07:00:53;6;6;
40947;PMS5003;49382;-25.924;28.194;2023-02-08T07:03:19;6;6;
40947;PMS5003;49382;-25.924;28.194;2023-02-08T07:05:45;4;4;
40947;PMS5003;49382;-25.924;28.194;2023-02-08T07:08:10;6;6;
40947;PMS5003;49382;-25.924;28.194;2023-02-08T07:10:37;8;7;
40947;PMS5003;49382;-25.924;28.194;2023-02-08T07:13:02;6;6;
40947;PMS5003;49382;-25.924;28.194;2023-02-08T07:15:28;6;6;
40947;PMS5003;49382;-25.924;28.194;2023-02-08T07:17:53;6;6;
40947;PMS5003;49382;-25.924;28.194;2023-02-08T07:20:19;6;6;
40947;PMS5003;49382;-25.924;28.194;2023-02-08T07:22:45;7;7;
40947;PMS5003;49382;-25.924;28.194;2023-02-08T07:25:11;6;6;
40947;PMS5003;49382;-25.924;28.194;2023-02-08T07:27:36;6;6;
40947;PMS5003;49382;-25.924;28.194;2023-02-08T07:30:02;7;7;
40947;PMS5003;49382;-25.924;28.194;2023-02-08T07:32:28;7;7;
40947;PMS5003;49382;-25.924;28.194;2023-02-08T07:34:54;7;6;
40947;PMS5003;49382;-25.924;28.194;2023-02-08T07:37:19;9;8;
40947;PMS5003;49382;-25.924;28.194;2023-02-08T07:39:45;7;7;
40947;PMS5003;49382;-25.924;28.194;2023-02-08T07:42:11;6;6;
40947;PMS5003;49382;-25.924;28.194;2023-02-08T07:44:37;8;8;
40947;PMS5003;49382;-25.924;28.194;2023-02-08T07:47:02;12;12;
40947;PMS5003;49382;-25.924;28.194;2023-02-08T07:49:28;11;10;
40947;PMS5003;49382;-25.924;28.194;2023-02-08T07:51:54;14;14;
40947;PMS5003;49382;-25.924;28.194;2023-02-08T07:54:19;16;16;
40947;PMS5003;49382;-25.924;28.194;2023-02-08T07:56:44;24;24;
40947;PMS5003;49382;-25.924;28.194;2023-02-08T07:59:09;19;19;
40947;PMS5003;49382;-25.924;28.194;2023-02-08T08:01:35;21;21;
40947;PMS5003;49382;-25.924;28.194;2023-02-08T08:04:00;24;24;
40947;PMS5003;49382;-25.924;28.194;2023-02-08T08:06:26;19;18;
40947;PMS5003;49382;-25.924;28.194;2023-02-08T08:08:51;24;24;
40947;PMS5003;49382;-25.924;28.194;2023-02-08T08:11:16;25;25;
40947;PMS5003;49382;-25.924;28.194;2023-02-08T08:13:42;22;21;
40947;PMS5003;49382;-25.924;28.194;2023-02-08T08:16:08;18;17;
40947;PMS5003;49382;-25.924;28.194;2023-02-08T08:18:33;18;18;
40947;PMS5003;49382;-25.924;28.194;2023-02-08T08:20:59;16;16;
40947;PMS5003;49382;-25.924;28.194;2023-02-08T08:23:25;12;12;
40947;PMS5003;49382;-25.924;28.194;2023-02-08T08:25:51;11;11;
40947;PMS5003;49382;-25.924;28.194;2023-02-08T08:28:16;11;11;
40947;PMS5003;49382;-25.924;28.194;2023-02-08T08:30:42;10;10;
40947;PMS5003;49382;-25.924;28.194;2023-02-08T08:33:08;13;12;
40947;PMS5003;49382;-25.924;28.194;2023-02-08T08:35:33;10;10;
40947;PMS5003;49382;-25.924;28.194;2023-02-08T08:37:59;10;10;
40947;PMS5003;49382;-25.924;28.194;2023-02-08T08:40:25;11;11;
40947;PMS5003;49382;-25.924;28.194;2023-02-08T08:42:51;12;11;
40947;PMS5003;49382;-25.924;28.194;2023-02-08T08:45:16;12;12;
40947;PMS5003;49382;-25.924;28.194;2023-02-08T08:47:42;10;10;
40947;PMS5003;49382;-25.924;28.194;2023-02-08T08:50:08;13;12;
40947;PMS5003;49382;-25.924;28.194;2023-02-08T08:52:34;12;12;
40947;PMS5003;49382;-25.924;28.194;2023-02-08T08:54:59;11;11;
40947;PMS5003;49382;-25.924;28.194;2023-02-08T08:57:25;11;11;
40947;PMS5003;49382;-25.924;28.194;2023-02-08T08:59:51;11;11;
40947;PMS5003;49382;-25.924;28.194;2023-02-08T09:02:17;12;12;
40947;PMS5003;49382;-25.924;28.194;2023-02-08T09:04:42;11;10;
40947;PMS5003;49382;-25.924;28.194;2023-02-08T09:07:08;12;11;
40947;PMS5003;49382;-25.924;28.194;2023-02-08T09:09:34;11;11;
40947;PMS5003;49382;-25.924;28.194;2023-02-08T09:12:00;11;11;
40947;PMS5003;49382;-25.924;28.194;2023-02-08T09:14:25;11;11;
40947;PMS5003;49382;-25.924;28.194;2023-02-08T09:16:51;12;11;
40947;PMS5003;49382;-25.924;28.194;2023-02-08T09:19:17;10;10;
40947;PMS5003;49382;-25.924;28.194;2023-02-08T09:21:43;11;11;
40947;PMS5003;49382;-25.924;28.194;2023-02-08T09:24:08;11;11;
40947;PMS5003;49382;-25.924;28.194;2023-02-08T09:26:34;10;10;
40947;PMS5003;49382;-25.924;28.194;2023-02-08T09:29:00;11;11;
40947;PMS5003;49382;-25.924;28.194;2023-02-08T09:31:26;12;12;
40947;PMS5003;49382;-25.924;28.194;2023-02-08T09:33:52;10;10;
40947;PMS5003;49382;-25.924;28.194;2023-02-08T09:36:17;10;10;
40947;PMS5003;49382;-25.924;28.194;2023-02-08T09:38:43;12;11;
40947;PMS5003;49382;-25.924;28.194;2023-02-08T09:41:13;10;10;
40947;PMS5003;49382;-25.924;28.194;2023-02-08T09:43:36;11;11;
40947;PMS5003;49382;-25.924;28.194;2023-02-08T09:46:01;16;15;
40947;PMS5003;49382;-25.924;28.194;2023-02-08T09:48:27;15;14;
40947;PMS5003;49382;-25.924;28.194;2023-02-08T09:50:53;14;13;
40947;PMS5003;49382;-25.924;28.194;2023-02-08T09:53:18;15;15;
40947;PMS5003;49382;-25.924;28.194;2023-02-08T09:55:43;17;17;
40947;PMS5003;49382;-25.924;28.194;2023-02-08T09:58:12;21;19;
40947;PMS5003;49382;-25.924;28.194;2023-02-08T10:00:35;18;18;
40947;PMS5003;49382;-25.924;28.194;2023-02-08T10:03:00;17;17;
40947;PMS5003;49382;-25.924;28.194;2023-02-08T10:05:26;16;16;
40947;PMS5003;49382;-25.924;28.194;2023-02-08T10:07:51;19;17;
40947;PMS5003;49382;-25.924;28.194;2023-02-08T10:10:18;14;14;
40947;PMS5003;49382;-25.924;28.194;2023-02-08T10:12:44;12;12;
40947;PMS5003;49382;-25.924;28.194;2023-02-08T10:15:11;16;16;
40947;PMS5003;49382;-25.924;28.194;2023-02-08T10:20:02;18;18;
40947;PMS5003;49382;-25.924;28.194;2023-02-08T10:22:28;38;38;
40947;PMS5003;49382;-25.924;28.194;2023-02-08T10:24:55;34;34;
40947;PMS5003;49382;-25.924;28.194;2023-02-08T10:27:19;30;30;
40947;PMS5003;49382;-25.924;28.194;2023-02-08T10:29:47;23;23;
40947;PMS5003;49382;-25.924;28.194;2023-02-08T10:32:14;29;29;
40947;PMS5003;49382;-25.924;28.194;2023-02-08T10:34:36;35;34;
40947;PMS5003;49382;-25.924;28.194;2023-02-08T10:36:59;26;26;
40947;PMS5003;49382;-25.924;28.194;2023-02-08T10:39:25;37;37;
40947;PMS5003;49382;-25.924;28.194;2023-02-08T10:41:50;28;28;
40947;PMS5003;49382;-25.924;28.194;2023-02-08T10:44:17;32;32;
40947;PMS5003;49382;-25.924;28.194;2023-02-08T10:46:42;32;31;
40947;PMS5003;49382;-25.924;28.194;2023-02-08T10:49:07;30;30;
40947;PMS5003;49382;-25.924;28.194;2023-02-08T10:51:31;30;29;
40947;PMS5003;49382;-25.924;28.194;2023-02-08T10:53:57;32;32;
40947;PMS5003;49382;-25.924;28.194;2023-02-08T10:58:48;29;27;
40947;PMS5003;49382;-25.924;28.194;2023-02-08T11:01:14;33;32;
40947;PMS5003;49382;-25.924;28.194;2023-02-08T11:03:41;31;31;
40947;PMS5003;49382;-25.924;28.194;2023-02-08T11:06:05;28;28;
40947;PMS5003;49382;-25.924;28.194;2023-02-08T11:08:30;30;29;
40947;PMS5003;49382;-25.924;28.194;2023-02-08T11:10:57;37;37;
40947;PMS5003;49382;-25.924;28.194;2023-02-08T11:13:21;30;30;
40947;PMS5003;49382;-25.924;28.194;2023-02-08T11:15:47;30;29;
40947;PMS5003;49382;-25.924;28.194;2023-02-08T11:18:16;29;29;
40947;PMS5003;49382;-25.924;28.194;2023-02-08T11:20:38;42;41;
40947;PMS5003;49382;-25.924;28.194;2023-02-08T11:23:04;31;31;
40947;PMS5003;49382;-25.924;28.194;2023-02-08T11:25:32;31;31;
40947;PMS5003;49382;-25.924;28.194;2023-02-08T11:27:54;33;32;
40947;PMS5003;49382;-25.924;28.194;2023-02-08T11:30:21;32;30;
40947;PMS5003;49382;-25.924;28.194;2023-02-08T11:32:46;31;29;
40947;PMS5003;49382;-25.924;28.194;2023-02-08T11:35:11;33;33;
40947;PMS5003;49382;-25.924;28.194;2023-02-08T11:37:35;57;57;
40947;PMS5003;49382;-25.924;28.194;2023-02-08T11:40:01;33;33;
40947;PMS5003;49382;-25.924;28.194;2023-02-08T11:42:27;33;33;
40947;PMS5003;49382;-25.924;28.194;2023-02-08T11:44:52;70;70;
40947;PMS5003;49382;-25.924;28.194;2023-02-08T11:47:17;33;33;
40947;PMS5003;49382;-25.924;28.194;2023-02-08T11:49:43;32;31;
40947;PMS5003;49382;-25.924;28.194;2023-02-08T11:54:34;35;35;
40947;PMS5003;49382;-25.924;28.194;2023-02-08T11:57:01;39;39;
40947;PMS5003;49382;-25.924;28.194;2023-02-08T11:59:25;24;24;
40947;PMS5003;49382;-25.924;28.194;2023-02-08T12:01:50;80;78;
40947;PMS5003;49382;-25.924;28.194;2023-02-08T12:04:16;27;26;
40947;PMS5003;49382;-25.924;28.194;2023-02-08T12:06:47;28;28;
40947;PMS5003;49382;-25.924;28.194;2023-02-08T12:09:09;25;24;
40947;PMS5003;49382;-25.924;28.194;2023-02-08T12:11:35;29;29;
40947;PMS5003;49382;-25.924;28.194;2023-02-08T12:14:02;24;24;
40947;PMS5003;49382;-25.924;28.194;2023-02-08T12:16:28;26;26;
40947;PMS5003;49382;-25.924;28.194;2023-02-08T12:18:58;29;28;
40947;PMS5003;49382;-25.924;28.194;2023-02-08T12:21:17;25;25;
40947;PMS5003;49382;-25.924;28.194;2023-02-08T12:23:45;27;27;
40947;PMS5003;49382;-25.924;28.194;2023-02-08T12:26:11;25;25;
40947;PMS5003;49382;-25.924;28.194;2023-02-08T12:28:37;18;18;
40947;PMS5003;49382;-25.924;28.194;2023-02-08T12:31:00;26;25;
40947;PMS5003;49382;-25.924;28.194;2023-02-08T12:33:27;22;22;
40947;PMS5003;49382;-25.924;28.194;2023-02-08T12:35:54;74;74;
40947;PMS5003;49382;-25.924;28.194;2023-02-08T12:38:17;28;28;
40947;PMS5003;49382;-25.924;28.194;2023-02-08T12:40:42;24;24;
40947;PMS5003;49382;-25.924;28.194;2023-02-08T12:43:08;49;49;
40947;PMS5003;49382;-25.924;28.194;2023-02-08T12:47:59;34;34;
40947;PMS5003;49382;-25.924;28.194;2023-02-08T12:50:23;21;20;
40947;PMS5003;49382;-25.924;28.194;2023-02-08T12:52:47;25;24;
40947;PMS5003;49382;-25.924;28.194;2023-02-08T12:55:14;48;48;
40947;PMS5003;49382;-25.924;28.194;2023-02-08T12:57:38;34;34;
40947;PMS5003;49382;-25.924;28.194;2023-02-08T13:00:04;27;26;
40947;PMS5003;49382;-25.924;28.194;2023-02-08T13:02:30;29;29;
40947;PMS5003;49382;-25.924;28.194;2023-02-08T13:04:56;24;24;
40947;PMS5003;49382;-25.924;28.194;2023-02-08T13:07:22;28;27;
40947;PMS5003;49382;-25.924;28.194;2023-02-08T13:09:49;25;25;
40947;PMS5003;49382;-25.924;28.194;2023-02-08T13:12:13;25;25;
40947;PMS5003;49382;-25.924;28.194;2023-02-08T13:14:39;26;26;
40947;PMS5003;49382;-25.924;28.194;2023-02-08T13:17:05;25;25;
40947;PMS5003;49382;-25.924;28.194;2023-02-08T13:19:31;25;25;
40947;PMS5003;49382;-25.924;28.194;2023-02-08T13:21:56;24;23;
40947;PMS5003;49382;-25.924;28.194;2023-02-08T13:24:26;22;22;
40947;PMS5003;49382;-25.924;28.194;2023-02-08T13:26:47;21;21;
40947;PMS5003;49382;-25.924;28.194;2023-02-08T13:29:15;22;22;
40947;PMS5003;49382;-25.924;28.194;2023-02-08T13:31:39;27;26;
40947;PMS5003;49382;-25.924;28.194;2023-02-08T13:34:05;26;26;
40947;PMS5003;49382;-25.924;28.194;2023-02-08T13:36:31;24;23;
40947;PMS5003;49382;-25.924;28.194;2023-02-08T13:38:55;24;23;
40947;PMS5003;49382;-25.924;28.194;2023-02-08T13:41:21;22;22;
40947;PMS5003;49382;-25.924;28.194;2023-02-08T13:43:48;21;20;
40947;PMS5003;49382;-25.924;28.194;2023-02-08T13:46:11;23;23;
40947;PMS5003;49382;-25.924;28.194;2023-02-08T13:48:42;32;32;
40947;PMS5003;49382;-25.924;28.194;2023-02-08T13:51:03;39;39;
40947;PMS5003;49382;-25.924;28.194;2023-02-08T13:55:55;23;23;
40947;PMS5003;49382;-25.924;28.194;2023-02-08T14:08:01;26;25;
40947;PMS5003;49382;-25.924;28.194;2023-02-08T14:10:28;34;34;
40947;PMS5003;49382;-25.924;28.194;2023-02-08T14:12:54;21;20;
40947;PMS5003;49382;-25.924;28.194;2023-02-08T14:17:44;31;31;
40947;PMS5003;49382;-25.924;28.194;2023-02-08T14:22:35;56;56;
40947;PMS5003;49382;-25.924;28.194;2023-02-08T14:25:02;32;32;
40947;PMS5003;49382;-25.924;28.194;2023-02-08T14:27:26;62;62;
40947;PMS5003;49382;-25.924;28.194;2023-02-08T14:34:41;24;24;
40947;PMS5003;49382;-25.924;28.194;2023-02-08T14:39:32;32;31;
40947;PMS5003;49382;-25.924;28.194;2023-02-08T14:41:56;42;42;
40947;PMS5003;49382;-25.924;28.194;2023-02-08T14:46:47;40;40;
40947;PMS5003;49382;-25.924;28.194;2023-02-08T14:49:14;47;47;
40947;PMS5003;49382;-25.924;28.194;2023-02-08T14:51:40;42;42;
40947;PMS5003;49382;-25.924;28.194;2023-02-08T14:54:12;24;23;
40947;PMS5003;49382;-25.924;28.194;2023-02-08T14:56:30;28;28;
40947;PMS5003;49382;-25.924;28.194;2023-02-08T14:58:55;25;25;
40947;PMS5003;49382;-25.924;28.194;2023-02-08T15:01:20;26;26;
40947;PMS5003;49382;-25.924;28.194;2023-02-08T15:03:46;25;25;
40947;PMS5003;49382;-25.924;28.194;2023-02-08T15:08:37;27;27;
40947;PMS5003;49382;-25.924;28.194;2023-02-08T15:11:03;30;28;
40947;PMS5003;49382;-25.924;28.194;2023-02-08T15:13:28;26;26;
40947;PMS5003;49382;-25.924;28.194;2023-02-08T15:15:54;27;27;
40947;PMS5003;49382;-25.924;28.194;2023-02-08T15:18:21;25;25;
40947;PMS5003;49382;-25.924;28.194;2023-02-08T15:20:45;27;26;
40947;PMS5003;49382;-25.924;28.194;2023-02-08T15:25:37;26;26;
40947;PMS5003;49382;-25.924;28.194;2023-02-08T15:28:03;27;27;
40947;PMS5003;49382;-25.924;28.194;2023-02-08T15:30:30;36;36;
40947;PMS5003;49382;-25.924;28.194;2023-02-08T15:32:54;28;28;
40947;PMS5003;49382;-25.924;28.194;2023-02-08T15:35:20;45;44;
40947;PMS5003;49382;-25.924;28.194;2023-02-08T15:37:45;47;46;
40947;PMS5003;49382;-25.924;28.194;2023-02-08T15:42:35;40;40;
40947;PMS5003;49382;-25.924;28.194;2023-02-08T15:45:00;34;34;
40947;PMS5003;49382;-25.924;28.194;2023-02-08T15:47:27;39;39;
40947;PMS5003;49382;-25.924;28.194;2023-02-08T15:49:52;28;28;
40947;PMS5003;49382;-25.924;28.194;2023-02-08T15:52:18;33;33;
40947;PMS5003;49382;-25.924;28.194;2023-02-08T15:54:43;28;27;
40947;PMS5003;49382;-25.924;28.194;2023-02-08T15:59:34;33;33;
40947;PMS5003;49382;-25.924;28.194;2023-02-08T16:02:07;37;35;
40947;PMS5003;49382;-25.924;28.194;2023-02-08T16:04:25;40;40;
40947;PMS5003;49382;-25.924;28.194;2023-02-08T16:06:51;38;37;
40947;PMS5003;49382;-25.924;28.194;2023-02-08T16:09:18;35;35;
40947;PMS5003;49382;-25.924;28.194;2023-02-08T16:11:44;38;38;
40947;PMS5003;49382;-25.924;28.194;2023-02-08T16:14:12;37;36;
40947;PMS5003;49382;-25.924;28.194;2023-02-08T16:16:39;37;37;
40947;PMS5003;49382;-25.924;28.194;2023-02-08T16:18:58;37;37;
40947;PMS5003;49382;-25.924;28.194;2023-02-08T16:21:28;36;36;
40947;PMS5003;49382;-25.924;28.194;2023-02-08T16:23:49;55;55;
40947;PMS5003;49382;-25.924;28.194;2023-02-08T16:26:16;39;39;
40947;PMS5003;49382;-25.924;28.194;2023-02-08T16:28:40;60;60;
40947;PMS5003;49382;-25.924;28.194;2023-02-08T16:31:05;43;43;
40947;PMS5003;49382;-25.924;28.194;2023-02-08T16:33:30;40;40;
40947;PMS5003;49382;-25.924;28.194;2023-02-08T16:35:55;37;37;
40947;PMS5003;49382;-25.924;28.194;2023-02-08T16:38:21;60;59;
40947;PMS5003;49382;-25.924;28.194;2023-02-08T16:40:47;41;41;
40947;PMS5003;49382;-25.924;28.194;2023-02-08T16:43:15;45;41;
40947;PMS5003;49382;-25.924;28.194;2023-02-08T16:45:37;47;47;
40947;PMS5003;49382;-25.924;28.194;2023-02-08T16:48:04;38;38;